createdAt,value
2023-02-21T00:00:41.284Z,0.47
2023-02-21T00:03:29.364Z,0.60
2023-02-21T00:06:17.257Z,0.40
2023-02-21T00:09:05.772Z,0.40
2023-02-21T00:11:53.590Z,0.43
2023-02-21T00:14:41.594Z,0.38
2023-02-21T00:17:29.202Z,0.45
2023-02-21T00:23:06.156Z,0.40
2023-02-21T00:25:54.073Z,0.50
2023-02-21T00:28:41.626Z,0.50
2023-02-21T00:31:29.188Z,0.40
2023-02-21T00:37:04.396Z,0.40
2023-02-21T00:42:39.438Z,0.52
2023-02-21T00:45:27.196Z,0.50
2023-02-21T00:48:14.924Z,0.52
2023-02-21T00:53:51.244Z,0.50
2023-02-21T00:56:39.179Z,0.40
2023-02-21T00:59:26.747Z,0.40
2023-02-21T01:05:02.298Z,0.45
2023-02-21T01:07:51.594Z,0.40
2023-02-21T01:10:39.674Z,0.40
2023-02-21T01:13:27.994Z,0.50
2023-02-21T01:16:15.624Z,0.50
2023-02-21T01:19:03.218Z,0.38
2023-02-21T01:21:52.347Z,0.45
2023-02-21T01:24:40.885Z,0.40
2023-02-21T01:27:28.591Z,0.40
2023-02-21T01:33:04.103Z,0.40
2023-02-21T01:35:51.649Z,0.40
2023-02-21T01:41:27.210Z,0.40
2023-02-21T01:44:47.810Z,0.50
2023-02-21T01:47:35.932Z,0.40
2023-02-21T01:50:37.050Z,0.40
2023-02-21T01:53:33.251Z,0.40
2023-02-21T01:56:22.080Z,0.40
2023-02-21T01:59:15.001Z,0.40
2023-02-21T02:02:37.000Z,0.50
2023-02-21T02:05:30.137Z,0.30
2023-02-21T02:08:17.709Z,0.40
2023-02-21T02:11:14.037Z,0.50
2023-02-21T02:13:43.849Z,0.50
2023-02-21T02:17:21.047Z,0.40
2023-02-21T02:20:20.872Z,0.50
2023-02-21T02:23:29.394Z,0.40
2023-02-21T02:26:26.223Z,0.30
2023-02-21T02:29:32.615Z,0.45
2023-02-21T02:32:54.161Z,0.40
2023-02-21T02:35:43.905Z,0.40
2023-02-21T02:38:31.716Z,0.30
2023-02-21T02:41:13.132Z,0.40
2023-02-21T02:44:02.566Z,0.40
2023-02-21T02:46:37.256Z,0.40
2023-02-21T02:49:19.468Z,0.30
2023-02-21T02:51:52.143Z,0.40
2023-02-21T02:54:24.258Z,0.40
2023-02-21T02:56:53.623Z,0.40
2023-02-21T02:59:29.969Z,0.47
2023-02-21T03:02:11.806Z,0.47
2023-02-21T03:05:13.413Z,0.40
2023-02-21T03:08:26.031Z,0.50
2023-02-21T03:11:20.449Z,0.40
2023-02-21T03:14:05.641Z,0.45
2023-02-21T03:16:44.160Z,0.45
2023-02-21T03:19:24.418Z,0.30
2023-02-21T03:22:03.826Z,0.40
2023-02-21T03:24:37.308Z,0.40
2023-02-21T03:27:09.078Z,0.30
2023-02-21T03:30:07.648Z,0.45
2023-02-21T03:32:50.310Z,0.50
2023-02-21T03:35:21.520Z,0.40
2023-02-21T03:37:53.581Z,0.43
2023-02-21T03:40:33.714Z,0.40
2023-02-21T03:43:09.587Z,0.40
2023-02-21T03:45:50.237Z,0.40
2023-02-21T03:48:31.388Z,0.40
2023-02-21T03:51:07.640Z,0.35
2023-02-21T03:53:39.100Z,0.40
2023-02-21T03:56:09.989Z,0.30
2023-02-21T03:58:55.794Z,0.40
2023-02-21T04:01:25.606Z,0.40
2023-02-21T04:03:56.400Z,0.40
2023-02-21T04:06:26.034Z,0.40
2023-02-21T04:08:55.290Z,0.30
2023-02-21T04:11:26.390Z,0.40
2023-02-21T04:13:56.521Z,0.40
2023-02-21T04:16:26.426Z,0.50
2023-02-21T04:18:57.347Z,0.40
2023-02-21T04:21:27.608Z,0.40
2023-02-21T04:23:58.832Z,0.40
2023-02-21T04:26:32.501Z,0.40
2023-02-21T04:29:03.052Z,0.50
2023-02-21T04:31:33.142Z,0.40
2023-02-21T04:34:11.985Z,0.50
2023-02-21T04:36:45.052Z,0.40
2023-02-21T04:39:14.780Z,0.40
2023-02-21T04:41:44.049Z,0.40
2023-02-21T04:44:14.036Z,0.40
2023-02-21T04:46:43.280Z,0.40
2023-02-21T04:49:13.905Z,0.40
2023-02-21T04:51:43.363Z,0.40
2023-02-21T04:54:14.077Z,0.50
2023-02-21T04:56:44.042Z,0.32
2023-02-21T04:59:13.511Z,0.32
2023-02-21T05:01:42.742Z,0.40
2023-02-21T05:04:12.147Z,0.40
2023-02-21T05:06:41.502Z,0.50
2023-02-21T05:09:10.812Z,0.50
2023-02-21T05:11:40.246Z,0.40
2023-02-21T05:14:09.790Z,0.40
2023-02-21T05:16:39.030Z,0.40
2023-02-21T05:19:08.230Z,0.50
2023-02-21T05:21:38.825Z,0.35
2023-02-21T05:24:08.518Z,0.50
2023-02-21T05:26:39.157Z,0.47
2023-02-21T05:29:08.510Z,0.50
2023-02-21T05:31:37.880Z,0.40
2023-02-21T05:34:07.163Z,0.35
2023-02-21T05:36:37.112Z,0.50
2023-02-21T05:39:07.875Z,0.40
2023-02-21T05:41:37.602Z,0.40
2023-02-21T05:44:07.027Z,0.40
2023-02-21T05:46:36.237Z,0.40
2023-02-21T05:49:07.291Z,0.50
2023-02-21T05:51:43.688Z,0.40
2023-02-21T05:54:20.213Z,0.43
2023-02-21T05:56:51.480Z,0.50
2023-02-21T05:59:21.482Z,0.43
2023-02-21T06:01:51.911Z,0.50
2023-02-21T06:04:21.281Z,0.40
2023-02-21T06:06:51.672Z,0.40
2023-02-21T06:09:21.135Z,0.50
2023-02-21T06:11:50.406Z,0.50
2023-02-21T06:14:20.954Z,0.50
2023-02-21T06:16:50.328Z,0.45
2023-02-21T06:19:20.251Z,0.43
2023-02-21T06:21:49.499Z,0.40
2023-02-21T06:24:18.853Z,0.50
2023-02-21T06:26:48.096Z,0.30
2023-02-21T06:29:17.441Z,0.40
2023-02-21T06:31:46.779Z,0.40
2023-02-21T06:34:16.144Z,0.40
2023-02-21T06:36:45.340Z,0.38
2023-02-21T06:39:14.548Z,0.40
2023-02-21T06:41:43.954Z,0.40
2023-02-21T06:44:13.261Z,0.40
2023-02-21T06:46:43.743Z,0.40
2023-02-21T06:49:13.136Z,0.40
2023-02-21T06:51:43.185Z,0.40
2023-02-21T06:54:13.731Z,0.40
2023-02-21T06:56:44.722Z,0.40
2023-02-21T06:59:14.085Z,0.40
2023-02-21T07:01:44.900Z,0.40
2023-02-21T07:04:14.475Z,0.40
2023-02-21T07:06:43.710Z,0.40
2023-02-21T07:09:13.430Z,0.30
2023-02-21T07:11:42.807Z,0.40
2023-02-21T07:14:13.032Z,0.30
2023-02-21T07:16:42.362Z,0.40
2023-02-21T07:21:45.345Z,0.40
2023-02-21T07:24:14.910Z,0.35
2023-02-21T07:26:44.319Z,0.40
2023-02-21T07:29:13.730Z,0.40
2023-02-21T07:31:43.174Z,0.40
2023-02-21T07:34:12.493Z,0.40
2023-02-21T07:36:41.872Z,0.30
2023-02-21T07:39:11.809Z,0.40
2023-02-21T07:41:41.451Z,0.40
2023-02-21T07:44:11.960Z,0.40
2023-02-21T07:46:43.120Z,0.40
2023-02-21T07:49:12.779Z,0.40
2023-02-21T07:51:42.193Z,0.40
2023-02-21T07:54:11.449Z,0.40
2023-02-21T07:56:49.647Z,0.30
2023-02-21T07:59:19.071Z,0.40
2023-02-21T08:01:48.355Z,0.30
2023-02-21T08:04:21.316Z,0.40
2023-02-21T08:06:50.744Z,0.40
2023-02-21T08:09:19.984Z,0.30
2023-02-21T08:11:49.254Z,0.40
2023-02-21T08:14:18.499Z,0.40
2023-02-21T08:16:47.767Z,0.30
2023-02-21T08:19:17.243Z,0.40
2023-02-21T08:21:48.998Z,0.40
2023-02-21T08:24:19.484Z,0.30
2023-02-21T08:26:48.905Z,0.40
2023-02-21T08:29:18.293Z,0.30
2023-02-21T08:31:47.947Z,0.40
2023-02-21T08:34:17.295Z,0.30
2023-02-21T08:36:46.565Z,0.40
2023-02-21T08:39:15.984Z,0.40
2023-02-21T08:41:52.396Z,0.30
2023-02-21T08:44:21.902Z,0.30
2023-02-21T08:46:51.193Z,0.40
2023-02-21T08:49:20.509Z,0.40
2023-02-21T08:51:49.749Z,0.32
2023-02-21T08:54:19.668Z,0.30
2023-02-21T08:56:49.741Z,0.30
2023-02-21T08:59:19.021Z,0.30
2023-02-21T09:01:48.517Z,0.30
2023-02-21T09:04:17.729Z,0.30
2023-02-21T09:06:47.048Z,0.30
2023-02-21T09:09:16.396Z,0.30
2023-02-21T09:11:49.464Z,0.30
2023-02-21T09:14:18.721Z,0.30
2023-02-21T09:16:48.230Z,0.30
2023-02-21T09:19:17.794Z,0.40
2023-02-21T09:21:48.194Z,0.30
2023-02-21T09:24:17.567Z,0.30
2023-02-21T09:26:47.274Z,0.30
2023-02-21T09:29:16.705Z,0.30
2023-02-21T09:31:46.000Z,0.30
2023-02-21T09:34:16.184Z,0.30
2023-02-21T09:36:47.841Z,0.30
2023-02-21T09:39:18.810Z,0.40
2023-02-21T09:41:50.711Z,0.30
2023-02-21T09:44:26.040Z,0.30
2023-02-21T09:47:01.654Z,0.30
2023-02-21T09:49:39.456Z,0.30
2023-02-21T09:52:26.259Z,0.30
2023-02-21T09:55:02.358Z,0.30
2023-02-21T09:57:32.965Z,0.30
2023-02-21T10:00:02.400Z,0.30
2023-02-21T10:03:11.282Z,0.30
2023-02-21T10:05:53.368Z,0.25
2023-02-21T10:08:38.526Z,0.30
2023-02-21T10:12:03.668Z,0.30
2023-02-21T10:15:22.954Z,0.30
2023-02-21T10:20:59.536Z,0.20
2023-02-21T10:23:32.776Z,0.30
2023-02-21T10:26:10.306Z,0.20
2023-02-21T10:28:40.226Z,0.30
2023-02-21T10:31:24.213Z,0.22
2023-02-21T10:33:53.875Z,0.30
2023-02-21T10:36:23.905Z,0.30
2023-02-21T10:39:07.533Z,0.30
2023-02-21T10:41:41.409Z,0.30
2023-02-21T10:44:25.555Z,0.30
2023-02-21T10:47:08.366Z,0.30
2023-02-21T10:50:05.479Z,0.20
2023-02-21T10:52:51.890Z,0.30
2023-02-21T10:55:32.644Z,0.20
2023-02-21T10:58:23.684Z,0.25
2023-02-21T11:00:52.970Z,0.30
2023-02-21T11:03:31.569Z,0.20
2023-02-21T11:06:01.957Z,0.20
2023-02-21T11:08:49.192Z,0.20
2023-02-21T11:11:40.911Z,0.30
2023-02-21T11:14:21.688Z,0.20
2023-02-21T11:17:15.676Z,0.20
2023-02-21T11:19:50.644Z,0.20
2023-02-21T11:22:42.431Z,0.30
2023-02-21T11:25:39.827Z,0.30
2023-02-21T11:28:14.730Z,0.30
2023-02-21T11:31:07.911Z,0.30
2023-02-21T11:33:48.999Z,0.20
2023-02-21T11:36:25.845Z,0.28
2023-02-21T11:39:04.538Z,0.30
2023-02-21T11:41:48.145Z,0.30
2023-02-21T11:44:28.435Z,0.20
2023-02-21T11:47:09.708Z,0.20
2023-02-21T11:50:26.604Z,0.30
2023-02-21T11:53:22.541Z,0.30
2023-02-21T11:56:05.192Z,0.25
2023-02-21T11:58:52.309Z,0.20
2023-02-21T12:01:37.948Z,0.20
2023-02-21T12:04:39.577Z,0.20
2023-02-21T12:07:36.125Z,0.30
2023-02-21T12:10:42.714Z,0.30
2023-02-21T12:13:36.533Z,0.30
2023-02-21T12:16:22.083Z,0.30
2023-02-21T12:19:18.635Z,0.30
2023-02-21T12:22:32.830Z,0.30
2023-02-21T12:25:56.373Z,0.22
2023-02-21T12:29:28.639Z,0.20
2023-02-21T12:32:35.864Z,0.20
2023-02-21T12:35:45.506Z,0.30
2023-02-21T12:38:46.134Z,0.20
2023-02-21T12:41:45.930Z,0.22
2023-02-21T12:44:36.401Z,0.20
2023-02-21T12:47:32.532Z,0.20
2023-02-21T12:50:21.140Z,0.20
2023-02-21T12:53:14.606Z,0.20
2023-02-21T12:56:23.566Z,0.20
2023-02-21T12:59:13.560Z,0.20
2023-02-21T13:01:50.071Z,0.30
2023-02-21T13:04:50.493Z,0.30
2023-02-21T13:07:50.696Z,0.30
2023-02-21T13:10:31.812Z,0.30
2023-02-21T13:13:18.280Z,0.20
2023-02-21T13:15:49.758Z,0.30
2023-02-21T13:18:26.096Z,0.30
2023-02-21T13:21:25.352Z,0.30
2023-02-21T13:24:44.112Z,0.30
2023-02-21T13:27:34.558Z,0.30
2023-02-21T13:30:48.062Z,0.30
2023-02-21T13:33:46.245Z,0.30
2023-02-21T13:36:50.005Z,0.20
2023-02-21T13:39:36.518Z,0.28
2023-02-21T13:42:16.949Z,0.30
2023-02-21T13:44:55.428Z,0.20
2023-02-21T13:47:24.677Z,0.30
2023-02-21T13:49:58.916Z,0.30
2023-02-21T13:52:50.899Z,0.20
2023-02-21T13:55:21.574Z,0.20
2023-02-21T13:57:57.574Z,0.20
2023-02-21T14:00:26.981Z,0.20
2023-02-21T14:03:25.199Z,0.30
2023-02-21T14:06:24.152Z,0.30
2023-02-21T14:09:20.886Z,0.20
2023-02-21T14:11:54.206Z,0.20
2023-02-21T14:14:32.296Z,0.30
2023-02-21T14:17:10.518Z,0.30
2023-02-21T14:19:49.276Z,0.30
2023-02-21T14:22:28.342Z,0.30
2023-02-21T14:25:18.483Z,0.30
2023-02-21T14:27:47.859Z,0.30
2023-02-21T14:30:29.737Z,0.20
2023-02-21T14:33:25.010Z,0.30
2023-02-21T14:36:09.671Z,0.30
2023-02-21T14:38:43.169Z,0.35
2023-02-21T14:41:43.096Z,0.30
2023-02-21T14:44:26.988Z,0.30
2023-02-21T14:47:17.396Z,0.28
2023-02-21T14:50:21.644Z,0.30
2023-02-21T14:53:16.969Z,0.30
2023-02-21T14:56:07.360Z,0.30
2023-02-21T14:59:01.340Z,0.30
2023-02-21T15:01:49.370Z,0.28
2023-02-21T15:04:30.270Z,0.30
2023-02-21T15:07:34.060Z,0.30
2023-02-21T15:10:23.574Z,0.30
2023-02-21T15:12:59.398Z,0.30
2023-02-21T15:15:40.839Z,0.30
2023-02-21T15:18:32.240Z,0.30
2023-02-21T15:21:15.397Z,0.30
2023-02-21T15:23:48.691Z,0.20
2023-02-21T15:26:31.098Z,0.40
2023-02-21T15:29:16.550Z,0.30
2023-02-21T15:32:00.281Z,0.20
2023-02-21T15:34:35.121Z,0.30
2023-02-21T15:37:21.495Z,0.30
2023-02-21T15:40:12.143Z,0.30
2023-02-21T15:42:45.496Z,0.30
2023-02-21T15:45:50.991Z,0.30
2023-02-21T15:48:21.405Z,0.20
2023-02-21T15:50:51.161Z,0.30
2023-02-21T15:53:24.748Z,0.30
2023-02-21T15:55:54.348Z,0.30
2023-02-21T15:58:27.256Z,0.30
2023-02-21T16:01:10.470Z,0.30
2023-02-21T16:03:46.991Z,0.30
2023-02-21T16:06:29.544Z,0.30
2023-02-21T16:09:06.711Z,0.30
2023-02-21T16:11:55.228Z,0.30
2023-02-21T16:14:43.474Z,0.40
2023-02-21T16:17:32.288Z,0.40
2023-02-21T16:20:19.890Z,0.40
2023-02-21T16:25:57.566Z,0.30
2023-02-21T16:28:28.579Z,0.30
2023-02-21T16:31:01.085Z,0.30
2023-02-21T16:33:31.791Z,0.32
2023-02-21T16:36:06.960Z,0.40
2023-02-21T16:38:36.379Z,0.30
2023-02-21T16:41:05.895Z,0.40
2023-02-21T16:43:35.171Z,0.30
2023-02-21T16:46:04.800Z,0.40
2023-02-21T16:48:34.161Z,0.40
2023-02-21T16:51:10.070Z,0.30
2023-02-21T16:53:39.335Z,0.30
2023-02-21T16:56:09.427Z,0.30
2023-02-21T16:58:50.469Z,0.30
2023-02-21T17:01:32.997Z,0.40
2023-02-21T17:04:14.271Z,0.30
2023-02-21T17:06:48.001Z,0.22
2023-02-21T17:09:24.802Z,0.30
2023-02-21T17:11:54.952Z,0.30
2023-02-21T17:14:24.196Z,0.40
2023-02-21T17:16:53.415Z,0.35
2023-02-21T17:19:23.038Z,0.40
2023-02-21T17:21:53.974Z,0.40
2023-02-21T17:24:23.561Z,0.30
2023-02-21T17:26:54.188Z,0.30
2023-02-21T17:29:23.727Z,0.30
2023-02-21T17:31:56.667Z,0.40
2023-02-21T17:34:25.979Z,0.30
2023-02-21T17:36:55.288Z,0.40
2023-02-21T17:39:26.793Z,0.30
2023-02-21T17:41:57.342Z,0.40
2023-02-21T17:44:28.282Z,0.40
2023-02-21T17:46:58.143Z,0.30
2023-02-21T17:49:28.792Z,0.30
2023-02-21T17:51:57.987Z,0.30
2023-02-21T17:54:27.232Z,0.30
2023-02-21T17:56:56.829Z,0.30
2023-02-21T17:59:26.059Z,0.30
2023-02-21T18:01:55.548Z,0.30
2023-02-21T18:04:25.356Z,0.40
2023-02-21T18:06:54.872Z,0.30
2023-02-21T18:09:24.335Z,0.40
2023-02-21T18:11:56.461Z,0.40
2023-02-21T18:14:30.305Z,0.40
2023-02-21T18:17:00.078Z,0.40
2023-02-21T18:19:29.803Z,0.30
2023-02-21T18:21:59.034Z,0.30
2023-02-21T18:24:28.299Z,0.35
2023-02-21T18:26:57.597Z,0.40
2023-02-21T18:29:26.922Z,0.38
2023-02-21T18:31:56.316Z,0.40
2023-02-21T18:34:25.751Z,0.30
2023-02-21T18:36:55.259Z,0.40
2023-02-21T18:39:24.923Z,0.38
2023-02-21T18:41:54.159Z,0.40
2023-02-21T18:44:23.400Z,0.40
2023-02-21T18:46:55.523Z,0.40
2023-02-21T18:49:26.321Z,0.40
2023-02-21T18:51:55.573Z,0.32
2023-02-21T18:54:24.805Z,0.40
2023-02-21T18:56:54.086Z,0.30
2023-02-21T18:59:23.463Z,0.40
2023-02-21T19:01:55.115Z,0.40
2023-02-21T19:04:24.499Z,0.40
2023-02-21T19:06:53.673Z,0.40
2023-02-21T19:09:22.888Z,0.32
2023-02-21T19:11:52.218Z,0.30
2023-02-21T19:14:21.495Z,0.38
2023-02-21T19:16:50.829Z,0.38
2023-02-21T19:19:20.188Z,0.40
2023-02-21T19:21:49.658Z,0.40
2023-02-21T19:24:18.957Z,0.40
2023-02-21T19:26:48.249Z,0.40
2023-02-21T19:29:17.734Z,0.40
2023-02-21T19:31:47.767Z,0.40
2023-02-21T19:34:17.256Z,0.40
2023-02-21T19:36:46.645Z,0.40
2023-02-21T19:39:16.055Z,0.40
2023-02-21T19:41:45.459Z,0.30
2023-02-21T19:44:15.416Z,0.40
2023-02-21T19:46:44.967Z,0.38
2023-02-21T19:49:18.260Z,0.30
2023-02-21T19:51:51.169Z,0.40
2023-02-21T19:54:30.920Z,0.40
2023-02-21T19:57:00.197Z,0.40
2023-02-21T19:59:30.095Z,0.40
2023-02-21T20:02:00.759Z,0.50
2023-02-21T20:04:30.620Z,0.30
2023-02-21T20:06:59.983Z,0.50
2023-02-21T20:09:29.236Z,0.40
2023-02-21T20:11:59.364Z,0.40
2023-02-21T20:14:28.701Z,0.50
2023-02-21T20:16:57.949Z,0.50
2023-02-21T20:19:28.442Z,0.45
2023-02-21T20:21:57.826Z,0.30
2023-02-21T20:24:27.107Z,0.40
2023-02-21T20:26:56.639Z,0.50
2023-02-21T20:29:27.353Z,0.30
2023-02-21T20:31:59.080Z,0.40
2023-02-21T20:34:28.477Z,0.50
2023-02-21T20:36:58.588Z,0.40
2023-02-21T20:39:31.635Z,0.40
2023-02-21T20:42:02.981Z,0.40
2023-02-21T20:44:38.715Z,0.40
2023-02-21T20:47:09.956Z,0.43
2023-02-21T20:49:43.443Z,0.40
2023-02-21T20:52:13.949Z,0.40
2023-02-21T20:54:43.297Z,0.40
2023-02-21T20:57:12.580Z,0.40
2023-02-21T20:59:42.381Z,0.40
2023-02-21T21:02:12.294Z,0.40
2023-02-21T21:04:43.521Z,0.50
2023-02-21T21:07:20.079Z,0.40
2023-02-21T21:09:50.032Z,0.50
2023-02-21T21:12:23.642Z,0.40
2023-02-21T21:14:53.411Z,0.40
2023-02-21T21:17:22.970Z,0.50
2023-02-21T21:19:53.521Z,0.40
2023-02-21T21:22:28.003Z,0.50
2023-02-21T21:24:57.480Z,0.40
2023-02-21T21:27:26.743Z,0.40
2023-02-21T21:29:56.012Z,0.50
2023-02-21T21:32:25.720Z,0.50
2023-02-21T21:34:57.759Z,0.47
2023-02-21T21:37:29.748Z,0.40
2023-02-21T21:39:59.023Z,0.40
2023-02-21T21:42:29.670Z,0.40
2023-02-21T21:44:59.070Z,0.43
2023-02-21T21:47:37.225Z,0.50
2023-02-21T21:50:07.830Z,0.40
2023-02-21T21:52:37.215Z,0.40
2023-02-21T21:55:09.476Z,0.45
2023-02-21T21:57:38.761Z,0.50
2023-02-21T22:00:24.142Z,0.40
2023-02-21T22:02:59.863Z,0.50
2023-02-21T22:05:31.699Z,0.40
2023-02-21T22:08:01.461Z,0.40
2023-02-21T22:10:30.805Z,0.40
2023-02-21T22:13:00.597Z,0.50
2023-02-21T22:15:30.299Z,0.40
2023-02-21T22:18:03.951Z,0.40
2023-02-21T22:20:36.053Z,0.45
2023-02-21T22:23:08.513Z,0.40
2023-02-21T22:25:38.196Z,0.40
2023-02-21T22:28:13.152Z,0.47
2023-02-21T22:30:42.568Z,0.40
2023-02-21T22:33:18.607Z,0.50
2023-02-21T22:35:47.812Z,0.40
2023-02-21T22:38:17.864Z,0.40
2023-02-21T22:40:47.175Z,0.43
2023-02-21T22:43:20.016Z,0.40
2023-02-21T22:45:50.214Z,0.40
2023-02-21T22:48:21.198Z,0.45
2023-02-21T22:50:52.303Z,0.40
2023-02-21T22:53:21.904Z,0.50
2023-02-21T22:55:52.491Z,0.40
2023-02-21T22:58:22.110Z,0.47
2023-02-21T23:00:53.002Z,0.50
2023-02-21T23:03:22.369Z,0.50
2023-02-21T23:05:52.094Z,0.40
2023-02-21T23:08:23.187Z,0.50
2023-02-21T23:10:52.957Z,0.45
2023-02-21T23:13:24.960Z,0.40
2023-02-21T23:15:57.578Z,0.50
2023-02-21T23:18:27.510Z,0.50
2023-02-21T23:20:58.014Z,0.50
2023-02-21T23:23:29.183Z,0.50
2023-02-21T23:25:59.487Z,0.40
2023-02-21T23:28:30.628Z,0.50
2023-02-21T23:30:59.923Z,0.50
2023-02-21T23:33:34.095Z,0.50
2023-02-21T23:36:04.839Z,0.40
2023-02-21T23:38:43.532Z,0.55
2023-02-21T23:41:12.751Z,0.50
2023-02-21T23:43:42.317Z,0.40
2023-02-21T23:46:22.059Z,0.40
2023-02-21T23:48:54.233Z,0.45
2023-02-21T23:51:26.315Z,0.50
2023-02-21T23:53:55.581Z,0.55
2023-02-21T23:56:24.771Z,0.50
2023-02-21T23:58:53.998Z,0.50
